createdAt,value
2022-10-10T00:01:37.093Z,1.38
2022-10-10T00:04:07.622Z,1.38
2022-10-10T00:06:36.551Z,1.23
2022-10-10T00:09:07.046Z,1.27
2022-10-10T00:11:36.320Z,1.17
2022-10-10T00:14:04.847Z,1.13
2022-10-10T00:16:33.515Z,1.30
2022-10-10T00:19:02.063Z,1.00
2022-10-10T00:21:32.196Z,1.10
2022-10-10T00:24:01.517Z,1.00
2022-10-10T00:26:30.044Z,1.00
2022-10-10T00:28:58.492Z,0.90
2022-10-10T00:31:27.012Z,0.97
2022-10-10T00:33:55.487Z,0.80
2022-10-10T00:36:24.019Z,1.00
2022-10-10T00:38:53.835Z,0.90
2022-10-10T00:41:22.592Z,1.08
2022-10-10T00:44:05.693Z,1.10
2022-10-10T00:46:34.215Z,1.10
2022-10-10T00:49:04.193Z,0.77
2022-10-10T00:51:33.179Z,1.02
2022-10-10T00:54:06.339Z,1.00
2022-10-10T00:56:41.106Z,1.00
2022-10-10T00:59:12.263Z,0.90
2022-10-10T01:01:42.388Z,1.02
2022-10-10T01:04:30.365Z,1.05
2022-10-10T01:07:00.318Z,1.10
2022-10-10T01:09:31.281Z,1.20
2022-10-10T01:12:08.727Z,1.35
2022-10-10T01:14:47.271Z,0.98
2022-10-10T01:17:21.296Z,0.95
2022-10-10T01:20:25.257Z,0.90
2022-10-10T01:23:21.265Z,0.93
2022-10-10T01:26:00.468Z,1.58
2022-10-10T01:28:41.320Z,1.17
2022-10-10T01:31:14.213Z,1.00
2022-10-10T01:33:54.163Z,1.00
2022-10-10T01:36:30.229Z,1.40
2022-10-10T01:39:08.130Z,1.40
2022-10-10T01:41:41.576Z,0.98
2022-10-10T01:44:11.371Z,1.40
2022-10-10T01:46:39.944Z,0.93
2022-10-10T01:49:08.466Z,1.10
2022-10-10T01:51:53.850Z,1.20
2022-10-10T01:54:34.829Z,2.47
2022-10-10T01:57:16.920Z,1.50
2022-10-10T01:59:59.855Z,1.50
2022-10-10T02:02:40.357Z,1.17
2022-10-10T02:05:16.106Z,1.15
2022-10-10T02:07:50.250Z,1.48
2022-10-10T02:10:23.056Z,1.63
2022-10-10T02:12:53.290Z,1.17
2022-10-10T02:15:26.621Z,1.30
2022-10-10T02:17:58.212Z,1.40
2022-10-10T02:20:28.961Z,1.05
2022-10-10T02:22:57.810Z,1.80
2022-10-10T02:25:31.765Z,1.20
2022-10-10T02:28:08.486Z,1.30
2022-10-10T02:30:42.653Z,1.45
2022-10-10T02:33:14.032Z,1.30
2022-10-10T02:35:47.201Z,1.23
2022-10-10T02:38:18.806Z,1.33
2022-10-10T02:40:49.436Z,2.00
2022-10-10T02:43:19.005Z,1.48
2022-10-10T02:45:49.000Z,1.40
2022-10-10T02:48:17.491Z,1.08
2022-10-10T02:50:46.494Z,0.90
2022-10-10T02:53:14.947Z,1.20
2022-10-10T02:55:43.424Z,1.30
2022-10-10T02:58:11.912Z,1.33
2022-10-10T03:00:40.465Z,1.15
2022-10-10T03:03:10.284Z,1.27
2022-10-10T03:05:38.719Z,1.17
2022-10-10T03:08:11.467Z,1.50
2022-10-10T03:10:40.861Z,1.23
2022-10-10T03:13:09.435Z,1.33
2022-10-10T03:15:37.937Z,1.10
2022-10-10T03:18:06.476Z,1.10
2022-10-10T03:20:36.316Z,1.30
2022-10-10T03:23:04.786Z,1.20
2022-10-10T03:25:35.046Z,1.30
2022-10-10T03:28:03.555Z,1.65
2022-10-10T03:30:32.033Z,1.20
2022-10-10T03:33:00.468Z,1.60
2022-10-10T03:35:29.181Z,1.20
2022-10-10T03:37:59.611Z,1.40
2022-10-10T03:40:28.945Z,1.50
2022-10-10T03:42:57.762Z,1.13
2022-10-10T03:45:26.343Z,1.52
2022-10-10T03:47:54.812Z,1.33
2022-10-10T03:50:23.318Z,2.10
2022-10-10T03:52:52.240Z,1.23
2022-10-10T03:55:22.481Z,1.25
2022-10-10T03:57:50.912Z,1.33
2022-10-10T04:00:19.569Z,1.35
2022-10-10T04:02:48.145Z,1.50
2022-10-10T04:05:16.836Z,1.00
2022-10-10T04:07:45.320Z,0.90
2022-10-10T04:10:13.813Z,1.48
2022-10-10T04:12:43.689Z,1.20
2022-10-10T04:15:12.568Z,1.10
2022-10-10T04:17:40.992Z,1.20
2022-10-10T04:20:10.128Z,1.10
2022-10-10T04:22:38.593Z,1.48
2022-10-10T04:25:07.761Z,1.90
2022-10-10T04:27:36.241Z,1.77
2022-10-10T04:30:07.168Z,3.60
2022-10-10T04:32:35.618Z,1.20
2022-10-10T04:35:04.962Z,1.70
2022-10-10T04:37:34.476Z,1.20
2022-10-10T04:40:03.033Z,1.40
2022-10-10T04:42:31.530Z,3.00
2022-10-10T04:45:00.008Z,1.60
2022-10-10T04:47:29.829Z,2.35
2022-10-10T04:49:58.290Z,1.63
2022-10-10T04:52:26.811Z,1.20
2022-10-10T04:54:55.263Z,1.40
2022-10-10T04:57:23.987Z,2.20
2022-10-10T04:59:52.604Z,1.60
2022-10-10T05:02:21.145Z,1.63
2022-10-10T05:04:50.959Z,1.50
2022-10-10T05:07:19.439Z,1.70
2022-10-10T05:09:47.922Z,1.45
2022-10-10T05:12:16.413Z,1.83
2022-10-10T05:14:48.153Z,1.67
2022-10-10T05:17:16.960Z,1.70
2022-10-10T05:19:45.609Z,1.50
2022-10-10T05:22:15.456Z,1.23
2022-10-10T05:24:43.912Z,1.90
2022-10-10T05:27:12.423Z,1.65
2022-10-10T05:29:40.926Z,1.73
2022-10-10T05:32:10.432Z,3.60
2022-10-10T05:34:39.543Z,2.15
2022-10-10T05:37:08.086Z,1.95
2022-10-10T05:39:37.924Z,3.03
2022-10-10T05:42:06.529Z,2.67
2022-10-10T05:44:35.010Z,5.82
2022-10-10T05:47:04.431Z,2.30
2022-10-10T05:49:32.905Z,2.33
2022-10-10T05:52:01.422Z,1.65
2022-10-10T05:54:29.892Z,1.30
2022-10-10T05:56:59.772Z,1.73
2022-10-10T05:59:30.312Z,2.83
2022-10-10T06:01:59.013Z,1.80
2022-10-10T06:04:27.536Z,1.50
2022-10-10T06:06:55.964Z,1.90
2022-10-10T06:09:24.448Z,2.20
2022-10-10T06:11:52.958Z,2.08
2022-10-10T06:14:22.884Z,1.70
2022-10-10T06:16:51.390Z,1.63
2022-10-10T06:19:19.853Z,1.93
2022-10-10T06:21:49.637Z,2.30
2022-10-10T06:24:18.099Z,2.47
2022-10-10T06:26:46.555Z,3.50
2022-10-10T06:29:15.011Z,1.88
2022-10-10T06:31:44.864Z,3.10
2022-10-10T06:34:13.332Z,2.85
2022-10-10T06:36:41.810Z,2.45
2022-10-10T06:39:10.261Z,1.70
2022-10-10T06:41:38.733Z,2.03
2022-10-10T06:44:07.691Z,1.90
2022-10-10T06:46:37.363Z,2.10
2022-10-10T06:49:07.277Z,2.92
2022-10-10T06:51:35.792Z,2.15
2022-10-10T06:54:04.297Z,3.78
2022-10-10T06:56:33.110Z,2.22
2022-10-10T06:59:01.634Z,2.75
2022-10-10T07:01:30.263Z,2.67
2022-10-10T07:03:58.768Z,2.90
2022-10-10T07:06:32.517Z,2.65
2022-10-10T07:09:03.168Z,4.28
2022-10-10T07:11:32.425Z,5.77
2022-10-10T07:14:00.878Z,3.15
2022-10-10T07:16:29.376Z,1.73
2022-10-10T07:18:57.849Z,1.98
2022-10-10T07:21:27.798Z,2.50
2022-10-10T07:23:56.274Z,1.90
2022-10-10T07:26:28.195Z,3.13
2022-10-10T07:28:56.617Z,1.40
2022-10-10T07:31:25.223Z,2.20
2022-10-10T07:33:53.734Z,3.53
2022-10-10T07:36:22.276Z,2.00
2022-10-10T07:38:54.492Z,2.92
2022-10-10T07:41:23.531Z,2.05
2022-10-10T07:43:56.760Z,2.40
2022-10-10T07:46:25.760Z,2.30
2022-10-10T07:48:54.200Z,2.00
2022-10-10T07:51:22.689Z,2.38
2022-10-10T07:53:53.862Z,1.95
2022-10-10T07:56:22.643Z,3.00
2022-10-10T07:58:51.096Z,4.28
2022-10-10T08:01:20.210Z,2.47
2022-10-10T08:03:48.881Z,3.23
2022-10-10T08:06:18.653Z,2.42
2022-10-10T08:08:51.995Z,2.10
2022-10-10T08:11:23.280Z,2.17
2022-10-10T08:13:52.373Z,2.30
2022-10-10T08:16:21.091Z,2.90
2022-10-10T08:18:49.585Z,2.97
2022-10-10T08:21:18.460Z,2.85
2022-10-10T08:23:47.673Z,2.20
2022-10-10T08:26:17.981Z,3.63
2022-10-10T08:28:48.793Z,2.28
2022-10-10T08:31:19.822Z,2.20
2022-10-10T08:33:49.271Z,2.60
2022-10-10T08:36:19.646Z,2.50
2022-10-10T08:38:48.304Z,2.03
2022-10-10T08:41:28.388Z,4.30
2022-10-10T08:44:01.672Z,2.55
2022-10-10T08:46:40.529Z,4.97
2022-10-10T08:49:20.426Z,2.88
2022-10-10T08:51:54.214Z,2.35
2022-10-10T08:54:25.082Z,2.97
2022-10-10T08:56:56.311Z,3.03
2022-10-10T08:59:31.299Z,4.35
2022-10-10T09:02:17.733Z,1.77
2022-10-10T09:04:47.552Z,4.45
2022-10-10T09:07:28.116Z,2.80
2022-10-10T09:10:02.285Z,2.95
2022-10-10T09:12:39.226Z,4.38
2022-10-10T09:15:16.413Z,3.65
2022-10-10T09:17:51.099Z,3.17
2022-10-10T09:20:36.416Z,3.07
2022-10-10T09:23:09.873Z,3.17
2022-10-10T09:25:41.887Z,3.43
2022-10-10T09:28:17.293Z,2.03
2022-10-10T09:30:51.738Z,3.47
2022-10-10T09:33:28.311Z,4.40
2022-10-10T09:36:02.661Z,5.38
2022-10-10T09:38:39.791Z,3.78
2022-10-10T09:41:15.957Z,2.22
2022-10-10T09:43:44.618Z,6.82
2022-10-10T09:46:14.742Z,3.17
2022-10-10T09:48:44.290Z,2.90
2022-10-10T09:51:16.735Z,2.08
2022-10-10T09:53:47.397Z,2.40
2022-10-10T09:56:19.235Z,2.57
2022-10-10T09:58:49.583Z,3.87
2022-10-10T10:01:22.706Z,3.30
2022-10-10T10:04:29.470Z,2.55
2022-10-10T10:07:08.929Z,2.78
2022-10-10T10:09:37.445Z,3.63
2022-10-10T10:12:07.293Z,3.30
2022-10-10T10:14:39.067Z,2.55
2022-10-10T10:17:11.884Z,5.35
2022-10-10T10:19:42.563Z,4.13
2022-10-10T10:22:32.564Z,3.88
2022-10-10T10:25:21.582Z,4.68
2022-10-10T10:27:50.042Z,4.43
2022-10-10T10:30:26.899Z,3.53
2022-10-10T10:33:03.812Z,1.73
2022-10-10T10:35:37.376Z,6.07
2022-10-10T10:38:18.954Z,3.53
2022-10-10T10:40:57.816Z,3.25
2022-10-10T10:43:51.468Z,5.03
2022-10-10T10:46:30.191Z,2.85
2022-10-10T10:49:08.084Z,2.70
2022-10-10T10:52:00.495Z,2.78
2022-10-10T10:54:51.272Z,4.82
2022-10-10T11:00:31.144Z,3.17
2022-10-10T11:03:35.056Z,4.00
2022-10-10T11:06:12.642Z,3.10
2022-10-10T11:08:58.784Z,5.30
2022-10-10T11:11:48.719Z,4.00
2022-10-10T11:14:34.816Z,2.40
2022-10-10T11:17:13.900Z,5.20
2022-10-10T11:19:48.122Z,2.08
2022-10-10T11:22:22.347Z,3.78
2022-10-10T11:24:55.118Z,2.50
2022-10-10T11:27:29.732Z,3.73
2022-10-10T11:30:15.477Z,1.55
2022-10-10T11:32:51.841Z,1.77
2022-10-10T11:35:34.437Z,3.15
2022-10-10T11:38:12.853Z,6.13
2022-10-10T11:40:51.606Z,2.78
2022-10-10T11:43:32.929Z,3.45
2022-10-10T11:46:09.745Z,3.30
2022-10-10T11:48:49.177Z,1.65
2022-10-10T11:51:29.644Z,4.28
2022-10-10T11:54:05.705Z,5.32
2022-10-10T11:56:40.764Z,2.00
2022-10-10T11:59:16.710Z,3.67
2022-10-10T12:01:49.972Z,6.50
2022-10-10T12:04:18.886Z,2.92
2022-10-10T12:06:53.988Z,4.57
2022-10-10T12:09:29.795Z,3.35
2022-10-10T12:12:01.433Z,12.05
2022-10-10T12:14:31.791Z,4.55
2022-10-10T12:17:00.784Z,4.28
2022-10-10T12:19:30.520Z,3.78
2022-10-10T12:22:04.985Z,4.35
2022-10-10T12:24:40.982Z,5.17
2022-10-10T12:27:31.037Z,5.45
2022-10-10T12:30:19.673Z,7.80
2022-10-10T12:32:50.223Z,3.85
2022-10-10T12:35:37.909Z,4.43
2022-10-10T12:38:19.137Z,4.03
2022-10-10T12:41:17.009Z,4.30
2022-10-10T12:44:23.129Z,6.10
2022-10-10T12:47:52.787Z,7.53
2022-10-10T12:50:26.754Z,4.03
2022-10-10T12:52:59.728Z,4.53
2022-10-10T12:55:32.521Z,4.65
2022-10-10T12:58:04.862Z,7.13
2022-10-10T13:00:42.630Z,7.95
2022-10-10T13:03:18.809Z,5.30
2022-10-10T13:05:50.317Z,8.60
2022-10-10T13:08:25.326Z,6.00
2022-10-10T13:11:08.618Z,3.90
2022-10-10T13:13:37.037Z,3.97
2022-10-10T13:16:14.541Z,5.50
2022-10-10T13:18:49.747Z,5.25
2022-10-10T13:21:23.638Z,5.00
2022-10-10T13:26:48.109Z,3.47
2022-10-10T13:29:25.711Z,3.60
2022-10-10T13:32:00.713Z,5.70
2022-10-10T13:34:32.655Z,5.00
2022-10-10T13:37:04.151Z,5.67
2022-10-10T13:39:37.440Z,3.15
2022-10-10T13:42:07.860Z,4.68
2022-10-10T13:44:51.123Z,4.60
2022-10-10T13:47:52.581Z,5.05
2022-10-10T13:50:29.183Z,5.40
2022-10-10T13:53:47.184Z,4.85
2022-10-10T13:56:22.574Z,4.15
2022-10-10T13:58:53.452Z,4.07
2022-10-10T14:01:40.606Z,6.65
2022-10-10T14:04:21.203Z,3.25
2022-10-10T14:07:01.974Z,3.40
2022-10-10T14:09:37.111Z,4.13
2022-10-10T14:12:08.710Z,4.97
2022-10-10T14:14:45.358Z,5.70
2022-10-10T14:17:13.810Z,5.13
2022-10-10T14:19:45.053Z,3.83
2022-10-10T14:22:13.471Z,3.63
2022-10-10T14:24:41.689Z,3.53
2022-10-10T14:27:17.698Z,3.95
2022-10-10T14:29:46.280Z,3.28
2022-10-10T14:32:15.980Z,4.75
2022-10-10T14:34:45.838Z,3.97
2022-10-10T14:37:20.418Z,5.28
2022-10-10T14:39:49.033Z,7.05
2022-10-10T14:42:20.769Z,1.93
2022-10-10T14:44:48.978Z,6.65
2022-10-10T14:47:19.568Z,4.77
2022-10-10T14:49:49.829Z,6.60
2022-10-10T14:52:17.987Z,4.88
2022-10-10T14:54:46.205Z,4.57
2022-10-10T14:57:15.497Z,4.53
2022-10-10T14:59:47.657Z,3.00
2022-10-10T15:02:22.336Z,3.50
2022-10-10T15:04:52.441Z,5.20
2022-10-10T15:07:21.316Z,3.03
2022-10-10T15:12:41.775Z,5.70
2022-10-10T15:15:12.124Z,2.58
2022-10-10T15:17:41.368Z,3.23
2022-10-10T15:20:13.789Z,3.72
2022-10-10T15:22:42.570Z,3.38
2022-10-10T15:25:11.144Z,1.85
2022-10-10T15:27:39.588Z,2.38
2022-10-10T15:30:09.603Z,4.10
2022-10-10T15:32:40.689Z,1.55
2022-10-10T15:35:14.170Z,2.88
2022-10-10T15:37:42.452Z,2.88
2022-10-10T15:40:12.479Z,3.97
2022-10-10T15:42:40.689Z,3.63
2022-10-10T15:45:10.590Z,2.67
2022-10-10T15:47:45.508Z,2.60
2022-10-10T15:50:16.123Z,3.72
2022-10-10T15:52:44.607Z,2.75
2022-10-10T15:55:12.808Z,4.15
2022-10-10T15:57:41.082Z,3.65
2022-10-10T16:00:10.540Z,2.15
2022-10-10T16:02:39.327Z,3.13
2022-10-10T16:05:08.564Z,4.00
2022-10-10T16:07:46.789Z,3.72
2022-10-10T16:10:16.457Z,2.87
2022-10-10T16:12:44.680Z,4.18
2022-10-10T16:15:13.415Z,2.83
2022-10-10T16:17:41.582Z,4.40
2022-10-10T16:20:11.186Z,2.25
2022-10-10T16:22:40.734Z,3.30
2022-10-10T16:25:21.951Z,2.70
2022-10-10T16:27:51.933Z,5.53
2022-10-10T16:30:20.994Z,4.00
2022-10-10T16:32:49.640Z,4.47
2022-10-10T16:35:18.019Z,2.20
2022-10-10T16:37:47.544Z,2.58
2022-10-10T16:40:15.720Z,4.57
2022-10-10T16:42:43.914Z,3.15
2022-10-10T16:45:12.879Z,1.98
2022-10-10T16:47:41.026Z,3.90
2022-10-10T16:50:10.512Z,2.63
2022-10-10T16:52:38.693Z,3.03
2022-10-10T16:55:11.313Z,2.47
2022-10-10T17:00:16.425Z,3.58
2022-10-10T17:02:44.572Z,1.60
2022-10-10T17:05:12.748Z,1.38
2022-10-10T17:07:40.883Z,1.15
2022-10-10T17:10:11.463Z,2.42
2022-10-10T17:12:39.652Z,3.33
2022-10-10T17:15:09.281Z,1.65
2022-10-10T17:17:38.186Z,1.77
2022-10-10T17:20:08.186Z,1.10
2022-10-10T17:22:37.074Z,1.10
2022-10-10T17:25:06.338Z,1.67
2022-10-10T17:27:36.116Z,1.10
2022-10-10T17:30:05.401Z,1.73
2022-10-10T17:32:33.681Z,1.30
2022-10-10T17:35:01.852Z,0.90
2022-10-10T17:37:30.002Z,1.90
2022-10-10T17:39:58.139Z,2.03
2022-10-10T17:42:26.710Z,4.70
2022-10-10T17:44:59.291Z,5.43
2022-10-10T17:47:28.345Z,3.60
2022-10-10T17:49:56.808Z,4.07
2022-10-10T17:52:25.912Z,5.75
2022-10-10T17:54:54.378Z,3.50
2022-10-10T17:57:22.548Z,3.42
2022-10-10T17:59:50.699Z,4.03
2022-10-10T18:02:20.736Z,3.42
2022-10-10T18:04:48.886Z,4.72
2022-10-10T18:07:18.701Z,5.27
2022-10-10T18:09:47.131Z,5.68
2022-10-10T18:12:15.616Z,4.93
2022-10-10T18:14:44.139Z,4.80
2022-10-10T18:17:13.948Z,3.05
2022-10-10T18:19:43.935Z,6.75
2022-10-10T18:22:12.457Z,5.43
2022-10-10T18:24:40.935Z,1.80
2022-10-10T18:27:09.432Z,6.38
2022-10-10T18:29:39.585Z,4.03
2022-10-10T18:32:08.380Z,4.78
2022-10-10T18:34:36.989Z,4.10
2022-10-10T18:37:07.163Z,9.25
2022-10-10T18:39:37.520Z,3.35
2022-10-10T18:42:06.366Z,5.93
2022-10-10T18:44:34.827Z,4.40
2022-10-10T18:47:03.423Z,5.55
2022-10-10T18:49:31.924Z,4.72
2022-10-10T18:52:00.412Z,3.53
2022-10-10T18:54:30.944Z,4.75
2022-10-10T18:56:59.449Z,3.40
2022-10-10T18:59:27.945Z,2.88
2022-10-10T19:01:56.742Z,3.75
2022-10-10T19:04:25.489Z,6.73
2022-10-10T19:06:57.705Z,5.65
2022-10-10T19:09:26.838Z,3.20
2022-10-10T19:11:56.808Z,4.00
2022-10-10T19:14:25.303Z,0.73
2022-10-10T19:16:53.791Z,1.85
2022-10-10T19:19:22.338Z,5.00
2022-10-10T19:21:51.376Z,2.88
2022-10-10T19:24:21.353Z,0.82
2022-10-10T19:26:56.347Z,3.67
2022-10-10T19:29:27.479Z,3.97
2022-10-10T19:31:56.327Z,1.60
2022-10-10T19:34:25.045Z,1.00
2022-10-10T19:36:53.605Z,1.23
2022-10-10T19:39:22.120Z,2.43
2022-10-10T19:41:50.923Z,2.10
2022-10-10T19:44:19.357Z,1.45
2022-10-10T19:46:49.203Z,0.93
2022-10-10T19:49:17.701Z,2.00
2022-10-10T19:51:46.212Z,1.20
2022-10-10T19:54:14.675Z,0.98
2022-10-10T19:56:42.848Z,1.58
2022-10-10T19:59:11.000Z,1.20
2022-10-10T20:01:39.254Z,2.08
2022-10-10T20:04:08.882Z,0.93
2022-10-10T20:06:37.081Z,1.33
2022-10-10T20:09:10.388Z,0.95
2022-10-10T20:11:39.518Z,1.83
2022-10-10T20:14:08.024Z,0.73
2022-10-10T20:16:36.498Z,1.02
2022-10-10T20:19:04.801Z,0.90
2022-10-10T20:21:36.005Z,0.98
2022-10-10T20:24:09.674Z,1.90
2022-10-10T20:26:38.508Z,1.07
2022-10-10T20:29:07.936Z,1.20
2022-10-10T20:31:38.290Z,1.00
2022-10-10T20:34:07.460Z,1.40
2022-10-10T20:36:39.149Z,1.00
2022-10-10T20:39:10.512Z,1.65
2022-10-10T20:41:40.219Z,0.90
2022-10-10T20:44:11.716Z,1.77
2022-10-10T20:46:43.295Z,1.60
2022-10-10T20:49:15.782Z,1.15
2022-10-10T20:51:48.692Z,2.23
2022-10-10T20:54:19.061Z,0.90
2022-10-10T20:56:49.154Z,2.20
2022-10-10T20:59:18.001Z,1.27
2022-10-10T21:01:46.448Z,1.63
2022-10-10T21:04:15.066Z,1.00
2022-10-10T21:06:44.630Z,0.95
2022-10-10T21:09:15.873Z,1.17
2022-10-10T21:11:46.437Z,1.25
2022-10-10T21:14:17.026Z,1.20
2022-10-10T21:16:45.305Z,1.00
2022-10-10T21:19:13.817Z,1.30
2022-10-10T21:21:42.051Z,0.90
2022-10-10T21:24:13.436Z,1.77
2022-10-10T21:26:43.299Z,2.47
2022-10-10T21:29:11.445Z,1.33
2022-10-10T21:31:41.622Z,0.85
2022-10-10T21:34:15.571Z,1.70
2022-10-10T21:36:43.819Z,1.10
2022-10-10T21:39:14.096Z,1.17
2022-10-10T21:41:42.684Z,1.83
2022-10-10T21:44:11.540Z,1.80
2022-10-10T21:46:39.732Z,1.27
2022-10-10T21:49:10.072Z,1.00
2022-10-10T21:51:40.132Z,1.08
2022-10-10T21:54:09.092Z,1.38
2022-10-10T21:56:39.121Z,1.38
2022-10-10T21:59:08.055Z,1.02
2022-10-10T22:01:37.766Z,1.30
2022-10-10T22:04:07.642Z,1.83
2022-10-10T22:06:36.310Z,1.52
2022-10-10T22:09:04.993Z,2.50
2022-10-10T22:11:35.321Z,1.92
2022-10-10T22:14:05.608Z,1.38
2022-10-10T22:16:35.104Z,1.88
2022-10-10T22:19:04.681Z,1.40
2022-10-10T22:21:34.947Z,1.40
2022-10-10T22:24:07.506Z,1.75
2022-10-10T22:26:36.584Z,1.38
2022-10-10T22:29:06.548Z,1.40
2022-10-10T22:31:37.550Z,1.50
2022-10-10T22:34:06.463Z,1.40
2022-10-10T22:36:34.738Z,1.48
2022-10-10T22:39:02.972Z,1.17
2022-10-10T22:41:31.173Z,1.08
2022-10-10T22:43:59.786Z,1.75
2022-10-10T22:46:29.307Z,1.95
2022-10-10T22:48:57.641Z,1.27
2022-10-10T22:51:26.152Z,1.13
2022-10-10T22:53:54.339Z,1.20
2022-10-10T22:56:23.138Z,1.00
2022-10-10T22:58:52.679Z,1.63
2022-10-10T23:01:24.275Z,1.10
2022-10-10T23:04:00.411Z,1.15
2022-10-10T23:06:28.981Z,1.65
2022-10-10T23:08:58.136Z,1.25
2022-10-10T23:11:26.327Z,1.10
2022-10-10T23:13:54.499Z,1.05
2022-10-10T23:16:22.763Z,1.40
2022-10-10T23:18:51.142Z,1.20
2022-10-10T23:21:21.166Z,1.35
2022-10-10T23:23:49.313Z,1.20
2022-10-10T23:26:17.613Z,1.52
2022-10-10T23:28:45.872Z,1.52
2022-10-10T23:31:15.047Z,1.23
2022-10-10T23:33:44.363Z,1.30
2022-10-10T23:36:14.881Z,1.25
2022-10-10T23:38:44.737Z,1.27
2022-10-10T23:41:13.891Z,1.25
2022-10-10T23:43:42.077Z,1.23
2022-10-10T23:46:10.298Z,1.30
2022-10-10T23:48:38.521Z,1.23
2022-10-10T23:51:08.020Z,1.45
2022-10-10T23:53:36.726Z,1.10
2022-10-10T23:56:07.340Z,2.13
2022-10-10T23:58:35.988Z,1.75
